sensor_id;sensor_type;location;lat;lon;timestamp;pressure;altitude;pressure_sealevel;temperature;humidity
32456;BME280;18912;43.270;27.942;2023-04-22T00:02:11;97819.16;;;14.68;50.21
32456;BME280;18912;43.270;27.942;2023-04-22T00:04:44;97814.69;;;14.74;50.18
32456;BME280;18912;43.270;27.942;2023-04-22T00:07:10;97815.13;;;14.82;50.11
32456;BME280;18912;43.270;27.942;2023-04-22T00:09:36;97815.22;;;14.87;49.93
32456;BME280;18912;43.270;27.942;2023-04-22T00:12:01;97813.56;;;14.86;50.19
32456;BME280;18912;43.270;27.942;2023-04-22T00:14:27;97809.56;;;14.89;50.17
32456;BME280;18912;43.270;27.942;2023-04-22T00:16:52;97808.34;;;14.96;50.08
32456;BME280;18912;43.270;27.942;2023-04-22T00:19:17;97817.69;;;15.01;50.00
32456;BME280;18912;43.270;27.942;2023-04-22T00:21:43;97812.41;;;15.11;49.95
32456;BME280;18912;43.270;27.942;2023-04-22T00:24:08;97813.78;;;15.25;49.68
32456;BME280;18912;43.270;27.942;2023-04-22T00:26:33;97805.69;;;15.30;49.66
32456;BME280;18912;43.270;27.942;2023-04-22T00:28:59;97808.81;;;15.22;50.01
32456;BME280;18912;43.270;27.942;2023-04-22T00:31:24;97804.66;;;15.31;50.04
32456;BME280;18912;43.270;27.942;2023-04-22T00:33:49;97800.88;;;15.20;50.31
32456;BME280;18912;43.270;27.942;2023-04-22T00:36:15;97806.19;;;15.27;50.34
32456;BME280;18912;43.270;27.942;2023-04-22T00:38:41;97799.19;;;15.31;50.43
32456;BME280;18912;43.270;27.942;2023-04-22T00:41:10;97798.69;;;15.34;50.46
32456;BME280;18912;43.270;27.942;2023-04-22T00:43:35;97800.69;;;15.38;50.51
32456;BME280;18912;43.270;27.942;2023-04-22T00:46:01;97802.81;;;15.48;50.46
32456;BME280;18912;43.270;27.942;2023-04-22T00:48:26;97801.81;;;15.54;50.41
32456;BME280;18912;43.270;27.942;2023-04-22T00:50:52;97805.47;;;15.59;50.50
32456;BME280;18912;43.270;27.942;2023-04-22T00:53:17;97807.75;;;15.67;50.49
32456;BME280;18912;43.270;27.942;2023-04-22T00:55:42;97805.69;;;15.58;50.63
32456;BME280;18912;43.270;27.942;2023-04-22T00:58:08;97805.94;;;15.56;50.60
32456;BME280;18912;43.270;27.942;2023-04-22T01:00:34;97808.41;;;15.58;50.60
32456;BME280;18912;43.270;27.942;2023-04-22T01:03:00;97801.25;;;15.68;50.13
32456;BME280;18912;43.270;27.942;2023-04-22T01:05:26;97809.50;;;15.73;49.86
32456;BME280;18912;43.270;27.942;2023-04-22T01:07:53;97806.53;;;15.75;49.94
32456;BME280;18912;43.270;27.942;2023-04-22T01:10:18;97802.50;;;15.77;49.97
32456;BME280;18912;43.270;27.942;2023-04-22T01:12:44;97806.03;;;15.78;49.43
32456;BME280;18912;43.270;27.942;2023-04-22T01:15:09;97808.78;;;15.78;49.43
32456;BME280;18912;43.270;27.942;2023-04-22T01:17:35;97804.88;;;15.74;49.25
32456;BME280;18912;43.270;27.942;2023-04-22T01:20:00;97802.63;;;15.71;49.11
32456;BME280;18912;43.270;27.942;2023-04-22T01:22:28;97806.44;;;15.70;49.05
32456;BME280;18912;43.270;27.942;2023-04-22T01:24:57;97793.72;;;15.59;49.18
32456;BME280;18912;43.270;27.942;2023-04-22T01:27:23;97795.03;;;15.56;48.97
32456;BME280;18912;43.270;27.942;2023-04-22T01:29:49;97791.41;;;15.51;48.76
32456;BME280;18912;43.270;27.942;2023-04-22T01:32:14;97801.66;;;15.44;48.64
32456;BME280;18912;43.270;27.942;2023-04-22T01:34:40;97799.78;;;15.33;48.69
32456;BME280;18912;43.270;27.942;2023-04-22T01:37:05;97802.91;;;15.25;48.68
32456;BME280;18912;43.270;27.942;2023-04-22T01:39:31;97801.53;;;15.11;48.74
32456;BME280;18912;43.270;27.942;2023-04-22T01:41:56;97804.75;;;15.08;48.77
32456;BME280;18912;43.270;27.942;2023-04-22T01:44:22;97798.97;;;15.04;48.79
32456;BME280;18912;43.270;27.942;2023-04-22T01:46:48;97799.13;;;14.86;49.06
32456;BME280;18912;43.270;27.942;2023-04-22T01:49:13;97796.16;;;14.87;48.99
32456;BME280;18912;43.270;27.942;2023-04-22T01:51:38;97797.84;;;14.88;48.82
32456;BME280;18912;43.270;27.942;2023-04-22T01:54:04;97790.31;;;14.79;49.06
32456;BME280;18912;43.270;27.942;2023-04-22T01:56:29;97795.56;;;14.57;49.41
32456;BME280;18912;43.270;27.942;2023-04-22T01:58:55;97788.34;;;14.51;49.73
32456;BME280;18912;43.270;27.942;2023-04-22T02:01:20;97780.19;;;14.51;50.03
32456;BME280;18912;43.270;27.942;2023-04-22T02:03:45;97783.50;;;14.53;49.92
32456;BME280;18912;43.270;27.942;2023-04-22T02:06:11;97779.22;;;14.57;49.71
32456;BME280;18912;43.270;27.942;2023-04-22T02:08:36;97780.59;;;14.43;49.70
32456;BME280;18912;43.270;27.942;2023-04-22T02:11:02;97780.09;;;14.46;49.79
32456;BME280;18912;43.270;27.942;2023-04-22T02:13:34;97782.38;;;14.38;49.81
32456;BME280;18912;43.270;27.942;2023-04-22T02:16:00;97783.06;;;14.33;49.84
32456;BME280;18912;43.270;27.942;2023-04-22T02:18:25;97787.66;;;14.44;49.44
32456;BME280;18912;43.270;27.942;2023-04-22T02:20:50;97794.78;;;14.34;49.48
32456;BME280;18912;43.270;27.942;2023-04-22T02:23:16;97798.78;;;14.20;49.98
32456;BME280;18912;43.270;27.942;2023-04-22T02:25:46;97796.66;;;14.10;50.08
32456;BME280;18912;43.270;27.942;2023-04-22T02:28:12;97786.63;;;13.99;50.00
32456;BME280;18912;43.270;27.942;2023-04-22T02:30:37;97797.97;;;13.96;50.02
32456;BME280;18912;43.270;27.942;2023-04-22T02:33:02;97794.41;;;13.84;49.92
32456;BME280;18912;43.270;27.942;2023-04-22T02:35:27;97785.19;;;13.85;49.86
32456;BME280;18912;43.270;27.942;2023-04-22T02:37:53;97786.97;;;13.91;50.22
32456;BME280;18912;43.270;27.942;2023-04-22T02:40:18;97781.41;;;13.86;50.57
32456;BME280;18912;43.270;27.942;2023-04-22T02:42:43;97785.44;;;13.83;50.30
32456;BME280;18912;43.270;27.942;2023-04-22T02:45:09;97792.63;;;13.89;50.30
32456;BME280;18912;43.270;27.942;2023-04-22T02:47:34;97790.75;;;13.90;50.18
32456;BME280;18912;43.270;27.942;2023-04-22T02:50:00;97791.00;;;13.77;50.61
32456;BME280;18912;43.270;27.942;2023-04-22T02:52:25;97792.19;;;13.81;50.43
32456;BME280;18912;43.270;27.942;2023-04-22T02:54:50;97793.88;;;13.41;51.24
32456;BME280;18912;43.270;27.942;2023-04-22T02:57:16;97794.00;;;13.46;51.41
32456;BME280;18912;43.270;27.942;2023-04-22T02:59:41;97791.22;;;13.23;51.70
32456;BME280;18912;43.270;27.942;2023-04-22T03:02:06;97788.47;;;13.41;51.58
32456;BME280;18912;43.270;27.942;2023-04-22T03:04:32;97795.56;;;13.65;51.02
32456;BME280;18912;43.270;27.942;2023-04-22T03:06:58;97785.41;;;13.72;50.88
32456;BME280;18912;43.270;27.942;2023-04-22T03:09:23;97794.06;;;13.80;50.84
32456;BME280;18912;43.270;27.942;2023-04-22T03:11:49;97796.16;;;13.67;50.86
32456;BME280;18912;43.270;27.942;2023-04-22T03:14:14;97797.91;;;13.50;51.00
32456;BME280;18912;43.270;27.942;2023-04-22T03:16:39;97795.00;;;13.74;50.56
32456;BME280;18912;43.270;27.942;2023-04-22T03:19:05;97802.34;;;13.33;51.50
32456;BME280;18912;43.270;27.942;2023-04-22T03:21:30;97797.38;;;13.18;52.24
32456;BME280;18912;43.270;27.942;2023-04-22T03:23:56;97798.66;;;13.68;51.28
32456;BME280;18912;43.270;27.942;2023-04-22T03:26:21;97805.28;;;13.84;50.90
32456;BME280;18912;43.270;27.942;2023-04-22T03:28:47;97821.00;;;13.93;50.83
32456;BME280;18912;43.270;27.942;2023-04-22T03:31:13;97824.91;;;13.97;50.78
32456;BME280;18912;43.270;27.942;2023-04-22T03:33:39;97817.94;;;14.01;51.05
32456;BME280;18912;43.270;27.942;2023-04-22T03:36:04;97819.00;;;14.12;50.90
32456;BME280;18912;43.270;27.942;2023-04-22T03:38:30;97818.16;;;14.12;51.23
32456;BME280;18912;43.270;27.942;2023-04-22T03:40:55;97828.44;;;14.21;51.12
32456;BME280;18912;43.270;27.942;2023-04-22T03:43:20;97827.53;;;14.27;51.02
32456;BME280;18912;43.270;27.942;2023-04-22T03:45:45;97825.38;;;14.41;50.95
32456;BME280;18912;43.270;27.942;2023-04-22T03:48:11;97825.03;;;14.37;50.84
32456;BME280;18912;43.270;27.942;2023-04-22T03:50:36;97827.84;;;14.54;50.69
32456;BME280;18912;43.270;27.942;2023-04-22T03:53:01;97835.41;;;14.63;50.54
32456;BME280;18912;43.270;27.942;2023-04-22T03:55:27;97836.91;;;14.71;50.35
32456;BME280;18912;43.270;27.942;2023-04-22T03:57:52;97846.81;;;14.88;50.31
32456;BME280;18912;43.270;27.942;2023-04-22T04:00:17;97845.53;;;14.91;50.89
32456;BME280;18912;43.270;27.942;2023-04-22T04:02:43;97847.50;;;14.95;50.92
32456;BME280;18912;43.270;27.942;2023-04-22T04:05:08;97853.22;;;15.22;50.64
32456;BME280;18912;43.270;27.942;2023-04-22T04:07:35;97859.09;;;15.42;50.49
32456;BME280;18912;43.270;27.942;2023-04-22T04:10:00;97863.97;;;15.57;50.32
32456;BME280;18912;43.270;27.942;2023-04-22T04:12:25;97860.03;;;15.81;49.94
32456;BME280;18912;43.270;27.942;2023-04-22T04:14:51;97862.63;;;16.04;49.76
32456;BME280;18912;43.270;27.942;2023-04-22T04:17:16;97859.81;;;16.16;49.34
32456;BME280;18912;43.270;27.942;2023-04-22T04:19:41;97875.28;;;16.10;49.31
32456;BME280;18912;43.270;27.942;2023-04-22T04:22:06;97865.66;;;16.24;49.13
32456;BME280;18912;43.270;27.942;2023-04-22T04:24:32;97872.59;;;16.32;49.04
32456;BME280;18912;43.270;27.942;2023-04-22T04:27:00;97869.44;;;16.56;48.92
32456;BME280;18912;43.270;27.942;2023-04-22T04:29:26;97878.66;;;16.50;48.94
32456;BME280;18912;43.270;27.942;2023-04-22T04:31:51;97880.16;;;16.79;48.93
32456;BME280;18912;43.270;27.942;2023-04-22T04:34:16;97889.78;;;17.04;48.68
32456;BME280;18912;43.270;27.942;2023-04-22T04:36:43;97890.34;;;17.27;47.89
32456;BME280;18912;43.270;27.942;2023-04-22T04:39:10;97899.69;;;17.53;47.29
32456;BME280;18912;43.270;27.942;2023-04-22T04:41:35;97895.56;;;17.77;47.07
32456;BME280;18912;43.270;27.942;2023-04-22T04:44:02;97905.09;;;18.01;46.41
32456;BME280;18912;43.270;27.942;2023-04-22T04:46:28;97905.28;;;18.21;46.34
32456;BME280;18912;43.270;27.942;2023-04-22T04:48:54;97906.59;;;18.45;45.69
32456;BME280;18912;43.270;27.942;2023-04-22T04:51:19;97910.38;;;18.76;45.68
32456;BME280;18912;43.270;27.942;2023-04-22T04:53:44;97922.28;;;19.02;45.40
32456;BME280;18912;43.270;27.942;2023-04-22T04:56:10;97927.63;;;19.23;45.38
32456;BME280;18912;43.270;27.942;2023-04-22T04:58:35;97923.66;;;19.51;44.71
32456;BME280;18912;43.270;27.942;2023-04-22T05:01:00;97919.31;;;19.65;44.04
32456;BME280;18912;43.270;27.942;2023-04-22T05:03:25;97924.88;;;19.95;43.57
32456;BME280;18912;43.270;27.942;2023-04-22T05:05:51;97933.69;;;20.07;42.77
32456;BME280;18912;43.270;27.942;2023-04-22T05:08:16;97933.13;;;20.10;42.68
32456;BME280;18912;43.270;27.942;2023-04-22T05:10:42;97936.47;;;20.27;42.14
32456;BME280;18912;43.270;27.942;2023-04-22T05:13:07;97936.19;;;20.54;42.46
32456;BME280;18912;43.270;27.942;2023-04-22T05:15:32;97936.47;;;20.73;42.38
32456;BME280;18912;43.270;27.942;2023-04-22T05:17:58;97934.56;;;20.58;41.83
32456;BME280;18912;43.270;27.942;2023-04-22T05:20:23;97941.97;;;20.68;41.38
32456;BME280;18912;43.270;27.942;2023-04-22T05:22:48;97943.63;;;20.64;41.13
32456;BME280;18912;43.270;27.942;2023-04-22T05:25:14;97941.69;;;20.54;41.36
32456;BME280;18912;43.270;27.942;2023-04-22T05:27:40;97948.00;;;20.75;41.04
32456;BME280;18912;43.270;27.942;2023-04-22T05:30:06;97943.88;;;20.67;40.84
32456;BME280;18912;43.270;27.942;2023-04-22T05:32:32;97947.31;;;21.43;40.19
32456;BME280;18912;43.270;27.942;2023-04-22T05:34:57;97947.75;;;21.70;40.30
32456;BME280;18912;43.270;27.942;2023-04-22T05:37:22;97948.84;;;22.23;40.21
32456;BME280;18912;43.270;27.942;2023-04-22T05:39:47;97943.94;;;22.54;39.40
32456;BME280;18912;43.270;27.942;2023-04-22T05:42:13;97943.84;;;22.69;38.99
32456;BME280;18912;43.270;27.942;2023-04-22T05:44:38;97948.88;;;22.62;38.25
32456;BME280;18912;43.270;27.942;2023-04-22T05:47:03;97955.03;;;22.44;37.74
32456;BME280;18912;43.270;27.942;2023-04-22T05:49:29;97946.75;;;22.82;37.48
32456;BME280;18912;43.270;27.942;2023-04-22T05:51:54;97951.13;;;22.55;37.40
32456;BME280;18912;43.270;27.942;2023-04-22T05:54:19;97954.81;;;23.02;37.69
32456;BME280;18912;43.270;27.942;2023-04-22T05:56:44;97962.16;;;23.12;36.85
32456;BME280;18912;43.270;27.942;2023-04-22T05:59:10;97959.22;;;23.56;36.79
32456;BME280;18912;43.270;27.942;2023-04-22T06:01:35;97957.22;;;23.61;35.85
32456;BME280;18912;43.270;27.942;2023-04-22T06:04:01;97957.03;;;23.29;36.75
32456;BME280;18912;43.270;27.942;2023-04-22T06:06:26;97967.69;;;23.64;36.20
32456;BME280;18912;43.270;27.942;2023-04-22T06:08:52;97974.22;;;23.92;35.68
32456;BME280;18912;43.270;27.942;2023-04-22T06:11:17;97974.09;;;23.83;36.10
32456;BME280;18912;43.270;27.942;2023-04-22T06:13:43;97977.41;;;24.41;34.73
32456;BME280;18912;43.270;27.942;2023-04-22T06:16:08;97978.63;;;24.17;34.97
32456;BME280;18912;43.270;27.942;2023-04-22T06:18:33;97978.78;;;24.94;34.77
32456;BME280;18912;43.270;27.942;2023-04-22T06:21:00;97979.88;;;24.80;34.05
32456;BME280;18912;43.270;27.942;2023-04-22T06:23:25;97982.88;;;25.29;34.14
32456;BME280;18912;43.270;27.942;2023-04-22T06:25:51;97982.06;;;25.29;33.71
32456;BME280;18912;43.270;27.942;2023-04-22T06:28:16;97982.31;;;25.46;32.86
32456;BME280;18912;43.270;27.942;2023-04-22T06:30:41;97991.03;;;25.39;32.67
32456;BME280;18912;43.270;27.942;2023-04-22T06:33:07;97995.94;;;25.10;33.06
32456;BME280;18912;43.270;27.942;2023-04-22T06:35:32;97985.06;;;25.00;33.05
32456;BME280;18912;43.270;27.942;2023-04-22T06:37:57;97993.50;;;24.58;33.95
32456;BME280;18912;43.270;27.942;2023-04-22T06:40:23;97992.03;;;24.97;33.04
32456;BME280;18912;43.270;27.942;2023-04-22T06:42:48;97999.59;;;24.73;33.77
32456;BME280;18912;43.270;27.942;2023-04-22T06:45:13;98001.31;;;24.32;32.93
32456;BME280;18912;43.270;27.942;2023-04-22T06:47:39;98009.53;;;24.93;33.01
32456;BME280;18912;43.270;27.942;2023-04-22T06:50:05;98006.22;;;25.23;33.25
32456;BME280;18912;43.270;27.942;2023-04-22T06:52:31;98015.34;;;25.83;32.86
32456;BME280;18912;43.270;27.942;2023-04-22T06:54:56;98007.34;;;25.54;32.07
32456;BME280;18912;43.270;27.942;2023-04-22T06:57:21;98011.22;;;25.67;31.91
32456;BME280;18912;43.270;27.942;2023-04-22T06:59:47;98011.84;;;26.05;32.53
32456;BME280;18912;43.270;27.942;2023-04-22T07:02:13;98013.81;;;25.63;32.02
32456;BME280;18912;43.270;27.942;2023-04-22T07:04:38;98007.75;;;25.88;31.91
32456;BME280;18912;43.270;27.942;2023-04-22T07:07:04;98020.84;;;25.42;32.61
32456;BME280;18912;43.270;27.942;2023-04-22T07:09:29;98028.28;;;26.15;31.57
32456;BME280;18912;43.270;27.942;2023-04-22T07:11:55;98023.34;;;26.25;31.78
32456;BME280;18912;43.270;27.942;2023-04-22T07:14:23;98022.94;;;26.18;31.15
32456;BME280;18912;43.270;27.942;2023-04-22T07:16:49;98023.53;;;26.02;31.47
32456;BME280;18912;43.270;27.942;2023-04-22T07:19:14;98029.47;;;25.95;31.33
32456;BME280;18912;43.270;27.942;2023-04-22T07:21:40;98029.09;;;26.02;31.74
32456;BME280;18912;43.270;27.942;2023-04-22T07:24:05;98026.84;;;25.31;32.40
32456;BME280;18912;43.270;27.942;2023-04-22T07:26:31;98032.50;;;24.75;32.21
32456;BME280;18912;43.270;27.942;2023-04-22T07:28:58;98039.81;;;25.17;32.23
32456;BME280;18912;43.270;27.942;2023-04-22T07:31:23;98040.53;;;24.71;33.51
32456;BME280;18912;43.270;27.942;2023-04-22T07:33:48;98038.84;;;25.08;32.71
32456;BME280;18912;43.270;27.942;2023-04-22T07:36:14;98043.13;;;25.64;32.58
32456;BME280;18912;43.270;27.942;2023-04-22T07:38:39;98043.94;;;25.65;32.37
32456;BME280;18912;43.270;27.942;2023-04-22T07:41:04;98040.69;;;26.17;31.54
32456;BME280;18912;43.270;27.942;2023-04-22T07:43:30;98037.97;;;25.44;33.16
32456;BME280;18912;43.270;27.942;2023-04-22T07:45:55;98038.22;;;25.75;32.77
32456;BME280;18912;43.270;27.942;2023-04-22T07:48:20;98044.25;;;25.63;32.59
32456;BME280;18912;43.270;27.942;2023-04-22T07:50:46;98041.63;;;26.75;32.01
32456;BME280;18912;43.270;27.942;2023-04-22T07:53:11;98046.69;;;27.70;30.50
32456;BME280;18912;43.270;27.942;2023-04-22T07:55:39;98032.47;;;27.94;30.14
32456;BME280;18912;43.270;27.942;2023-04-22T07:58:05;98033.41;;;28.37;29.98
32456;BME280;18912;43.270;27.942;2023-04-22T08:00:32;98044.09;;;28.95;28.61
32456;BME280;18912;43.270;27.942;2023-04-22T08:02:57;98040.03;;;29.18;28.82
32456;BME280;18912;43.270;27.942;2023-04-22T08:05:22;98034.88;;;28.52;29.31
32456;BME280;18912;43.270;27.942;2023-04-22T08:07:48;98045.91;;;29.00;29.03
32456;BME280;18912;43.270;27.942;2023-04-22T08:10:13;98039.88;;;29.23;29.29
32456;BME280;18912;43.270;27.942;2023-04-22T08:12:38;98042.16;;;29.21;28.83
32456;BME280;18912;43.270;27.942;2023-04-22T08:15:04;98047.16;;;29.71;28.06
32456;BME280;18912;43.270;27.942;2023-04-22T08:17:29;98052.13;;;28.88;27.83
32456;BME280;18912;43.270;27.942;2023-04-22T08:19:55;98043.47;;;28.81;28.37
32456;BME280;18912;43.270;27.942;2023-04-22T08:22:20;98046.88;;;27.96;28.91
32456;BME280;18912;43.270;27.942;2023-04-22T08:24:45;98042.56;;;27.59;30.04
32456;BME280;18912;43.270;27.942;2023-04-22T08:27:11;98045.75;;;28.88;28.18
32456;BME280;18912;43.270;27.942;2023-04-22T08:29:36;98041.97;;;29.18;27.81
32456;BME280;18912;43.270;27.942;2023-04-22T08:32:01;98043.06;;;29.60;27.47
32456;BME280;18912;43.270;27.942;2023-04-22T08:34:27;98051.00;;;30.24;26.87
32456;BME280;18912;43.270;27.942;2023-04-22T08:36:53;98049.66;;;30.39;26.28
32456;BME280;18912;43.270;27.942;2023-04-22T08:39:18;98042.16;;;30.60;26.85
32456;BME280;18912;43.270;27.942;2023-04-22T08:41:43;98048.72;;;31.05;26.13
32456;BME280;18912;43.270;27.942;2023-04-22T08:44:09;98040.38;;;30.76;25.29
32456;BME280;18912;43.270;27.942;2023-04-22T08:46:35;98034.78;;;30.56;26.04
32456;BME280;18912;43.270;27.942;2023-04-22T08:49:00;98038.91;;;30.50;26.00
32456;BME280;18912;43.270;27.942;2023-04-22T08:51:28;98043.47;;;30.83;25.91
32456;BME280;18912;43.270;27.942;2023-04-22T08:53:55;98043.13;;;31.05;26.40
32456;BME280;18912;43.270;27.942;2023-04-22T08:56:21;98032.94;;;30.89;26.66
32456;BME280;18912;43.270;27.942;2023-04-22T08:58:46;98041.31;;;30.89;25.52
32456;BME280;18912;43.270;27.942;2023-04-22T09:01:12;98029.34;;;30.59;26.62
32456;BME280;18912;43.270;27.942;2023-04-22T09:03:38;98033.88;;;30.05;27.12
32456;BME280;18912;43.270;27.942;2023-04-22T09:06:03;98037.38;;;29.39;26.84
32456;BME280;18912;43.270;27.942;2023-04-22T09:08:29;98038.38;;;29.26;27.89
32456;BME280;18912;43.270;27.942;2023-04-22T09:10:54;98039.78;;;29.75;27.27
32456;BME280;18912;43.270;27.942;2023-04-22T09:13:21;98042.88;;;29.65;28.20
32456;BME280;18912;43.270;27.942;2023-04-22T09:15:47;98046.41;;;29.99;26.20
32456;BME280;18912;43.270;27.942;2023-04-22T09:18:15;98038.09;;;30.49;26.43
32456;BME280;18912;43.270;27.942;2023-04-22T09:20:41;98045.56;;;30.36;27.13
32456;BME280;18912;43.270;27.942;2023-04-22T09:23:06;98055.16;;;29.64;26.05
32456;BME280;18912;43.270;27.942;2023-04-22T09:25:32;98047.91;;;30.26;26.04
32456;BME280;18912;43.270;27.942;2023-04-22T09:27:58;98025.09;;;30.53;27.00
32456;BME280;18912;43.270;27.942;2023-04-22T09:32:58;98045.19;;;30.96;26.88
32456;BME280;18912;43.270;27.942;2023-04-22T09:37:52;98053.59;;;30.88;27.24
32456;BME280;18912;43.270;27.942;2023-04-22T09:40:18;98044.22;;;30.92;25.33
32456;BME280;18912;43.270;27.942;2023-04-22T09:42:47;98042.44;;;30.38;25.19
32456;BME280;18912;43.270;27.942;2023-04-22T09:45:12;98036.91;;;29.28;26.14
32456;BME280;18912;43.270;27.942;2023-04-22T09:47:38;98038.72;;;28.90;27.31
32456;BME280;18912;43.270;27.942;2023-04-22T09:50:03;98050.66;;;29.25;26.78
32456;BME280;18912;43.270;27.942;2023-04-22T09:52:28;98043.06;;;28.40;26.63
32456;BME280;18912;43.270;27.942;2023-04-22T09:54:56;98043.59;;;29.27;27.92
32456;BME280;18912;43.270;27.942;2023-04-22T09:57:22;98048.19;;;29.32;27.17
32456;BME280;18912;43.270;27.942;2023-04-22T09:59:51;98046.78;;;29.81;27.89
32456;BME280;18912;43.270;27.942;2023-04-22T10:02:17;98054.34;;;28.52;27.39
32456;BME280;18912;43.270;27.942;2023-04-22T10:04:42;98047.38;;;28.89;27.62
32456;BME280;18912;43.270;27.942;2023-04-22T10:07:07;98040.50;;;28.86;27.48
32456;BME280;18912;43.270;27.942;2023-04-22T10:09:33;98049.50;;;28.92;27.85
32456;BME280;18912;43.270;27.942;2023-04-22T10:11:58;98035.44;;;29.05;27.33
32456;BME280;18912;43.270;27.942;2023-04-22T10:14:24;98038.63;;;27.91;28.03
32456;BME280;18912;43.270;27.942;2023-04-22T10:16:51;98044.53;;;28.37;28.82
32456;BME280;18912;43.270;27.942;2023-04-22T10:19:18;98035.59;;;28.75;27.42
32456;BME280;18912;43.270;27.942;2023-04-22T10:21:45;98040.81;;;28.93;27.25
32456;BME280;18912;43.270;27.942;2023-04-22T10:24:17;98047.88;;;28.82;28.26
32456;BME280;18912;43.270;27.942;2023-04-22T10:29:15;98039.53;;;28.74;28.29
32456;BME280;18912;43.270;27.942;2023-04-22T10:31:42;98034.47;;;28.93;27.60
32456;BME280;18912;43.270;27.942;2023-04-22T10:34:09;98033.47;;;28.54;28.05
32456;BME280;18912;43.270;27.942;2023-04-22T10:36:50;98029.28;;;27.48;29.77
32456;BME280;18912;43.270;27.942;2023-04-22T10:39:16;98033.03;;;28.22;28.57
32456;BME280;18912;43.270;27.942;2023-04-22T10:41:45;98036.94;;;27.73;28.89
32456;BME280;18912;43.270;27.942;2023-04-22T10:44:14;98031.69;;;28.11;28.16
32456;BME280;18912;43.270;27.942;2023-04-22T10:49:10;98026.69;;;27.91;29.58
32456;BME280;18912;43.270;27.942;2023-04-22T10:51:39;98028.34;;;27.52;29.99
32456;BME280;18912;43.270;27.942;2023-04-22T10:54:05;98030.38;;;28.08;29.89
32456;BME280;18912;43.270;27.942;2023-04-22T10:56:30;98032.69;;;28.15;30.73
32456;BME280;18912;43.270;27.942;2023-04-22T10:58:55;98029.06;;;28.06;30.13
32456;BME280;18912;43.270;27.942;2023-04-22T11:01:21;98030.47;;;28.42;29.18
32456;BME280;18912;43.270;27.942;2023-04-22T11:03:46;98037.75;;;28.13;29.79
32456;BME280;18912;43.270;27.942;2023-04-22T11:06:12;98031.13;;;28.48;29.81
32456;BME280;18912;43.270;27.942;2023-04-22T11:08:42;98034.19;;;28.21;29.61
32456;BME280;18912;43.270;27.942;2023-04-22T11:11:09;98039.63;;;28.43;29.54
32456;BME280;18912;43.270;27.942;2023-04-22T11:13:35;98030.66;;;28.63;28.55
32456;BME280;18912;43.270;27.942;2023-04-22T11:16:00;98033.34;;;27.81;28.81
32456;BME280;18912;43.270;27.942;2023-04-22T11:18:26;98036.91;;;28.04;28.83
32456;BME280;18912;43.270;27.942;2023-04-22T11:20:52;98039.13;;;27.32;30.37
32456;BME280;18912;43.270;27.942;2023-04-22T11:23:22;98040.19;;;27.22;30.52
32456;BME280;18912;43.270;27.942;2023-04-22T11:25:52;98036.53;;;27.13;32.69
32456;BME280;18912;43.270;27.942;2023-04-22T11:28:19;98028.03;;;27.32;30.43
32456;BME280;18912;43.270;27.942;2023-04-22T11:30:44;98032.19;;;27.43;29.65
32456;BME280;18912;43.270;27.942;2023-04-22T11:33:13;98033.94;;;27.17;31.15
32456;BME280;18912;43.270;27.942;2023-04-22T11:35:38;98037.63;;;27.26;30.59
32456;BME280;18912;43.270;27.942;2023-04-22T11:38:04;98037.63;;;27.26;31.50
32456;BME280;18912;43.270;27.942;2023-04-22T11:40:31;98028.28;;;27.22;31.15
32456;BME280;18912;43.270;27.942;2023-04-22T11:42:57;98033.03;;;27.30;31.32
32456;BME280;18912;43.270;27.942;2023-04-22T11:45:23;98040.88;;;26.84;31.12
32456;BME280;18912;43.270;27.942;2023-04-22T11:47:49;98026.19;;;26.83;30.29
32456;BME280;18912;43.270;27.942;2023-04-22T11:50:15;98035.88;;;26.23;32.02
32456;BME280;18912;43.270;27.942;2023-04-22T11:55:16;98037.72;;;26.76;33.30
32456;BME280;18912;43.270;27.942;2023-04-22T11:57:42;98031.91;;;26.87;31.10
32456;BME280;18912;43.270;27.942;2023-04-22T12:00:10;98023.41;;;26.83;31.61
32456;BME280;18912;43.270;27.942;2023-04-22T12:02:36;98027.34;;;26.68;31.80
32456;BME280;18912;43.270;27.942;2023-04-22T12:05:01;98016.56;;;27.03;32.61
32456;BME280;18912;43.270;27.942;2023-04-22T12:07:27;98029.91;;;26.29;32.67
32456;BME280;18912;43.270;27.942;2023-04-22T12:09:53;98034.91;;;26.27;32.30
32456;BME280;18912;43.270;27.942;2023-04-22T12:12:23;98033.38;;;26.35;32.68
32456;BME280;18912;43.270;27.942;2023-04-22T12:14:48;98025.75;;;26.90;32.10
32456;BME280;18912;43.270;27.942;2023-04-22T12:17:13;98021.97;;;26.86;31.65
32456;BME280;18912;43.270;27.942;2023-04-22T12:19:40;98026.13;;;27.19;31.99
32456;BME280;18912;43.270;27.942;2023-04-22T12:22:10;98018.94;;;26.96;31.51
32456;BME280;18912;43.270;27.942;2023-04-22T12:24:35;98018.47;;;26.44;32.27
32456;BME280;18912;43.270;27.942;2023-04-22T12:27:01;98025.81;;;26.76;33.40
32456;BME280;18912;43.270;27.942;2023-04-22T12:29:30;98026.31;;;26.78;33.05
32456;BME280;18912;43.270;27.942;2023-04-22T12:31:56;98020.13;;;26.81;34.08
32456;BME280;18912;43.270;27.942;2023-04-22T12:34:21;98021.13;;;27.07;32.60
32456;BME280;18912;43.270;27.942;2023-04-22T12:36:47;98014.22;;;26.74;31.91
32456;BME280;18912;43.270;27.942;2023-04-22T12:39:12;98019.56;;;26.93;31.30
32456;BME280;18912;43.270;27.942;2023-04-22T12:41:39;98028.09;;;26.11;31.77
32456;BME280;18912;43.270;27.942;2023-04-22T12:44:04;98025.97;;;26.44;31.00
32456;BME280;18912;43.270;27.942;2023-04-22T12:46:30;98021.38;;;26.75;30.72
32456;BME280;18912;43.270;27.942;2023-04-22T12:48:55;98023.56;;;26.29;31.23
32456;BME280;18912;43.270;27.942;2023-04-22T12:51:20;98018.00;;;26.29;31.65
32456;BME280;18912;43.270;27.942;2023-04-22T12:53:46;98029.94;;;26.16;32.34
32456;BME280;18912;43.270;27.942;2023-04-22T12:56:12;98018.31;;;25.86;32.64